sensor_id;sensor_type;location;lat;lon;timestamp;temperature;humidity
2212;DHT22;48849;48.758;9.158;2023-07-31T00:01:43;19.60;99.90
2212;DHT22;48849;48.758;9.158;2023-07-31T00:04:10;19.60;99.90
2212;DHT22;48849;48.758;9.158;2023-07-31T00:06:37;19.70;99.90
2212;DHT22;48849;48.758;9.158;2023-07-31T00:09:03;19.60;99.90
2212;DHT22;48849;48.758;9.158;2023-07-31T00:11:30;19.60;99.90
2212;DHT22;48849;48.758;9.158;2023-07-31T00:13:57;19.60;99.90
2212;DHT22;48849;48.758;9.158;2023-07-31T00:16:24;19.60;99.90
2212;DHT22;48849;48.758;9.158;2023-07-31T00:18:52;19.50;99.90
2212;DHT22;48849;48.758;9.158;2023-07-31T00:21:19;19.80;99.90
2212;DHT22;48849;48.758;9.158;2023-07-31T00:23:46;19.50;99.90
2212;DHT22;48849;48.758;9.158;2023-07-31T00:26:12;19.60;99.90
2212;DHT22;48849;48.758;9.158;2023-07-31T00:28:39;19.60;99.90
2212;DHT22;48849;48.758;9.158;2023-07-31T00:31:06;19.60;99.90
2212;DHT22;48849;48.758;9.158;2023-07-31T00:33:35;19.60;99.90
2212;DHT22;48849;48.758;9.158;2023-07-31T00:36:03;19.60;99.90
2212;DHT22;48849;48.758;9.158;2023-07-31T00:38:30;19.60;99.90
2212;DHT22;48849;48.758;9.158;2023-07-31T00:40:56;19.50;99.90
2212;DHT22;48849;48.758;9.158;2023-07-31T00:43:24;20.00;99.90
2212;DHT22;48849;48.758;9.158;2023-07-31T00:45:51;19.60;99.90
2212;DHT22;48849;48.758;9.158;2023-07-31T00:48:17;19.60;99.90
2212;DHT22;48849;48.758;9.158;2023-07-31T00:50:44;19.60;99.90
2212;DHT22;48849;48.758;9.158;2023-07-31T00:53:13;19.60;99.90
2212;DHT22;48849;48.758;9.158;2023-07-31T00:55:40;19.60;99.90
2212;DHT22;48849;48.758;9.158;2023-07-31T00:58:07;19.50;99.90
2212;DHT22;48849;48.758;9.158;2023-07-31T01:00:33;19.60;99.90
2212;DHT22;48849;48.758;9.158;2023-07-31T01:03:00;19.50;99.90
2212;DHT22;48849;48.758;9.158;2023-07-31T01:05:36;19.60;99.90
2212;DHT22;48849;48.758;9.158;2023-07-31T01:08:08;19.60;99.90
2212;DHT22;48849;48.758;9.158;2023-07-31T01:10:44;19.70;99.90
2212;DHT22;48849;48.758;9.158;2023-07-31T01:13:13;19.60;99.90
2212;DHT22;48849;48.758;9.158;2023-07-31T01:15:40;20.00;99.90
2212;DHT22;48849;48.758;9.158;2023-07-31T01:18:06;19.50;99.90
2212;DHT22;48849;48.758;9.158;2023-07-31T01:20:33;19.50;99.90
2212;DHT22;48849;48.758;9.158;2023-07-31T01:23:20;19.50;99.90
2212;DHT22;48849;48.758;9.158;2023-07-31T01:26:03;19.50;99.90
2212;DHT22;48849;48.758;9.158;2023-07-31T01:28:43;19.40;99.90
2212;DHT22;48849;48.758;9.158;2023-07-31T01:31:14;19.50;99.90
2212;DHT22;48849;48.758;9.158;2023-07-31T01:33:41;19.40;99.90
2212;DHT22;48849;48.758;9.158;2023-07-31T01:36:09;19.40;99.90
2212;DHT22;48849;48.758;9.158;2023-07-31T01:38:36;19.30;99.90
2212;DHT22;48849;48.758;9.158;2023-07-31T01:41:04;19.30;99.90
2212;DHT22;48849;48.758;9.158;2023-07-31T01:43:31;19.50;99.90
2212;DHT22;48849;48.758;9.158;2023-07-31T01:45:58;19.30;99.90
2212;DHT22;48849;48.758;9.158;2023-07-31T01:48:25;19.20;99.90
2212;DHT22;48849;48.758;9.158;2023-07-31T01:50:51;19.20;99.90
2212;DHT22;48849;48.758;9.158;2023-07-31T01:53:18;19.20;99.90
2212;DHT22;48849;48.758;9.158;2023-07-31T01:55:45;19.20;99.90
2212;DHT22;48849;48.758;9.158;2023-07-31T01:58:13;19.20;99.90
2212;DHT22;48849;48.758;9.158;2023-07-31T02:00:40;19.20;99.90
2212;DHT22;48849;48.758;9.158;2023-07-31T02:03:07;19.10;99.90
2212;DHT22;48849;48.758;9.158;2023-07-31T02:05:33;19.10;99.90
2212;DHT22;48849;48.758;9.158;2023-07-31T02:08:00;19.10;99.90
2212;DHT22;48849;48.758;9.158;2023-07-31T02:10:27;19.20;99.90
2212;DHT22;48849;48.758;9.158;2023-07-31T02:12:54;19.20;99.90
2212;DHT22;48849;48.758;9.158;2023-07-31T02:15:22;19.00;99.90
2212;DHT22;48849;48.758;9.158;2023-07-31T02:17:48;19.00;99.90
2212;DHT22;48849;48.758;9.158;2023-07-31T02:20:15;19.30;99.90
2212;DHT22;48849;48.758;9.158;2023-07-31T02:22:42;19.00;99.90
2212;DHT22;48849;48.758;9.158;2023-07-31T02:25:09;19.10;99.90
2212;DHT22;48849;48.758;9.158;2023-07-31T02:27:35;19.10;99.90
2212;DHT22;48849;48.758;9.158;2023-07-31T02:30:02;19.00;99.90
2212;DHT22;48849;48.758;9.158;2023-07-31T02:32:30;19.10;99.90
2212;DHT22;48849;48.758;9.158;2023-07-31T02:34:57;19.00;99.90
2212;DHT22;48849;48.758;9.158;2023-07-31T02:37:24;19.00;99.90
2212;DHT22;48849;48.758;9.158;2023-07-31T02:39:51;19.10;99.90
2212;DHT22;48849;48.758;9.158;2023-07-31T02:42:18;19.00;99.90
2212;DHT22;48849;48.758;9.158;2023-07-31T02:44:44;19.00;99.90
2212;DHT22;48849;48.758;9.158;2023-07-31T02:47:11;19.00;99.90
2212;DHT22;48849;48.758;9.158;2023-07-31T02:49:39;19.10;99.90
2212;DHT22;48849;48.758;9.158;2023-07-31T02:52:06;19.20;99.90
2212;DHT22;48849;48.758;9.158;2023-07-31T02:54:33;19.00;99.90
2212;DHT22;48849;48.758;9.158;2023-07-31T02:57:00;19.10;99.90
2212;DHT22;48849;48.758;9.158;2023-07-31T02:59:28;19.00;99.90
2212;DHT22;48849;48.758;9.158;2023-07-31T03:01:54;19.10;99.90
2212;DHT22;48849;48.758;9.158;2023-07-31T03:04:21;19.10;99.90
2212;DHT22;48849;48.758;9.158;2023-07-31T03:06:49;19.10;99.90
2212;DHT22;48849;48.758;9.158;2023-07-31T03:09:16;19.10;99.90
2212;DHT22;48849;48.758;9.158;2023-07-31T03:11:42;19.20;99.90
2212;DHT22;48849;48.758;9.158;2023-07-31T03:14:09;19.20;99.90
2212;DHT22;48849;48.758;9.158;2023-07-31T03:16:36;19.20;99.90
2212;DHT22;48849;48.758;9.158;2023-07-31T03:19:03;19.20;99.90
2212;DHT22;48849;48.758;9.158;2023-07-31T03:21:29;19.20;99.90
2212;DHT22;48849;48.758;9.158;2023-07-31T03:23:57;19.20;99.90
2212;DHT22;48849;48.758;9.158;2023-07-31T03:26:24;19.20;99.90
2212;DHT22;48849;48.758;9.158;2023-07-31T03:28:51;19.20;99.90
2212;DHT22;48849;48.758;9.158;2023-07-31T03:31:17;19.10;99.90
2212;DHT22;48849;48.758;9.158;2023-07-31T03:33:44;19.10;99.90
2212;DHT22;48849;48.758;9.158;2023-07-31T03:36:11;19.10;99.90
2212;DHT22;48849;48.758;9.158;2023-07-31T03:38:37;19.10;99.90
2212;DHT22;48849;48.758;9.158;2023-07-31T03:41:05;19.10;99.90
2212;DHT22;48849;48.758;9.158;2023-07-31T03:43:32;19.10;99.90
2212;DHT22;48849;48.758;9.158;2023-07-31T03:45:59;19.20;99.90
2212;DHT22;48849;48.758;9.158;2023-07-31T03:48:26;19.10;99.90
2212;DHT22;48849;48.758;9.158;2023-07-31T03:50:53;19.20;99.90
2212;DHT22;48849;48.758;9.158;2023-07-31T03:53:19;19.20;99.90
2212;DHT22;48849;48.758;9.158;2023-07-31T03:55:46;19.10;99.90
2212;DHT22;48849;48.758;9.158;2023-07-31T03:58:14;19.10;99.90
2212;DHT22;48849;48.758;9.158;2023-07-31T04:00:41;19.20;99.90
2212;DHT22;48849;48.758;9.158;2023-07-31T04:03:08;19.10;99.90
2212;DHT22;48849;48.758;9.158;2023-07-31T04:05:38;19.00;99.90
2212;DHT22;48849;48.758;9.158;2023-07-31T04:08:05;19.00;99.90
2212;DHT22;48849;48.758;9.158;2023-07-31T04:10:32;19.10;99.90
2212;DHT22;48849;48.758;9.158;2023-07-31T04:12:59;19.10;99.90
2212;DHT22;48849;48.758;9.158;2023-07-31T04:15:27;19.10;99.90
2212;DHT22;48849;48.758;9.158;2023-07-31T04:17:54;19.20;99.90
2212;DHT22;48849;48.758;9.158;2023-07-31T04:20:20;19.20;99.90
2212;DHT22;48849;48.758;9.158;2023-07-31T04:22:47;19.20;99.90
2212;DHT22;48849;48.758;9.158;2023-07-31T04:25:14;19.10;99.90
2212;DHT22;48849;48.758;9.158;2023-07-31T04:27:41;19.20;99.90
2212;DHT22;48849;48.758;9.158;2023-07-31T04:30:08;19.20;99.90
2212;DHT22;48849;48.758;9.158;2023-07-31T04:32:36;19.20;99.90
2212;DHT22;48849;48.758;9.158;2023-07-31T04:35:04;19.20;99.90
2212;DHT22;48849;48.758;9.158;2023-07-31T04:37:30;19.30;99.90
2212;DHT22;48849;48.758;9.158;2023-07-31T04:39:57;19.20;99.90
2212;DHT22;48849;48.758;9.158;2023-07-31T04:42:24;19.20;99.90
2212;DHT22;48849;48.758;9.158;2023-07-31T04:44:51;19.20;99.90
2212;DHT22;48849;48.758;9.158;2023-07-31T04:47:18;19.20;99.90
2212;DHT22;48849;48.758;9.158;2023-07-31T04:49:46;19.10;99.90
2212;DHT22;48849;48.758;9.158;2023-07-31T04:52:13;19.10;99.90
2212;DHT22;48849;48.758;9.158;2023-07-31T04:54:39;19.10;99.90
2212;DHT22;48849;48.758;9.158;2023-07-31T04:57:06;19.20;99.90
2212;DHT22;48849;48.758;9.158;2023-07-31T04:59:33;19.30;99.90
2212;DHT22;48849;48.758;9.158;2023-07-31T05:02:00;19.30;99.90
2212;DHT22;48849;48.758;9.158;2023-07-31T05:04:26;19.30;99.90
2212;DHT22;48849;48.758;9.158;2023-07-31T05:06:54;19.40;99.90
2212;DHT22;48849;48.758;9.158;2023-07-31T05:09:21;19.40;99.90
2212;DHT22;48849;48.758;9.158;2023-07-31T05:11:48;19.40;99.90
2212;DHT22;48849;48.758;9.158;2023-07-31T05:14:14;19.40;99.90
2212;DHT22;48849;48.758;9.158;2023-07-31T05:16:41;19.50;99.90
2212;DHT22;48849;48.758;9.158;2023-07-31T05:19:08;19.50;99.90
2212;DHT22;48849;48.758;9.158;2023-07-31T05:21:35;19.50;99.90
2212;DHT22;48849;48.758;9.158;2023-07-31T05:24:03;19.50;99.90
2212;DHT22;48849;48.758;9.158;2023-07-31T05:26:30;19.50;99.90
2212;DHT22;48849;48.758;9.158;2023-07-31T05:28:56;19.60;99.90
2212;DHT22;48849;48.758;9.158;2023-07-31T05:31:24;19.70;99.90
2212;DHT22;48849;48.758;9.158;2023-07-31T05:33:51;19.60;99.90
2212;DHT22;48849;48.758;9.158;2023-07-31T05:36:18;19.60;99.90
2212;DHT22;48849;48.758;9.158;2023-07-31T05:38:44;19.60;99.90
2212;DHT22;48849;48.758;9.158;2023-07-31T05:41:13;19.60;99.90
2212;DHT22;48849;48.758;9.158;2023-07-31T05:43:39;19.60;99.90
2212;DHT22;48849;48.758;9.158;2023-07-31T05:46:06;19.60;99.90
2212;DHT22;48849;48.758;9.158;2023-07-31T05:48:34;19.70;99.90
2212;DHT22;48849;48.758;9.158;2023-07-31T05:51:01;19.70;99.90
2212;DHT22;48849;48.758;9.158;2023-07-31T05:53:28;19.70;99.90
2212;DHT22;48849;48.758;9.158;2023-07-31T05:55:54;19.70;99.90
2212;DHT22;48849;48.758;9.158;2023-07-31T05:58:22;19.70;99.90
2212;DHT22;48849;48.758;9.158;2023-07-31T06:00:49;19.90;99.90
2212;DHT22;48849;48.758;9.158;2023-07-31T06:03:16;19.90;99.90
2212;DHT22;48849;48.758;9.158;2023-07-31T06:05:43;19.90;99.90
2212;DHT22;48849;48.758;9.158;2023-07-31T06:08:10;19.90;99.90
2212;DHT22;48849;48.758;9.158;2023-07-31T06:10:53;19.90;99.90
2212;DHT22;48849;48.758;9.158;2023-07-31T06:13:23;20.00;99.90
2212;DHT22;48849;48.758;9.158;2023-07-31T06:15:50;20.00;99.90
2212;DHT22;48849;48.758;9.158;2023-07-31T06:18:17;20.00;99.90
2212;DHT22;48849;48.758;9.158;2023-07-31T06:20:46;20.00;99.90
2212;DHT22;48849;48.758;9.158;2023-07-31T06:23:13;20.00;99.90
2212;DHT22;48849;48.758;9.158;2023-07-31T06:25:40;20.10;99.90
2212;DHT22;48849;48.758;9.158;2023-07-31T06:28:06;20.10;99.90
2212;DHT22;48849;48.758;9.158;2023-07-31T06:30:42;20.20;99.90
2212;DHT22;48849;48.758;9.158;2023-07-31T06:33:09;20.20;99.90
2212;DHT22;48849;48.758;9.158;2023-07-31T06:35:36;20.30;99.90
2212;DHT22;48849;48.758;9.158;2023-07-31T06:38:05;20.30;99.90
2212;DHT22;48849;48.758;9.158;2023-07-31T06:40:34;20.30;99.90
2212;DHT22;48849;48.758;9.158;2023-07-31T06:43:01;20.40;99.90
2212;DHT22;48849;48.758;9.158;2023-07-31T06:45:33;20.40;99.90
2212;DHT22;48849;48.758;9.158;2023-07-31T06:48:02;20.40;99.90
2212;DHT22;48849;48.758;9.158;2023-07-31T06:50:29;20.40;99.90
2212;DHT22;48849;48.758;9.158;2023-07-31T06:52:57;20.50;99.90
2212;DHT22;48849;48.758;9.158;2023-07-31T06:55:29;20.50;99.90
2212;DHT22;48849;48.758;9.158;2023-07-31T06:57:59;20.50;99.90
2212;DHT22;48849;48.758;9.158;2023-07-31T07:00:32;20.60;99.90
2212;DHT22;48849;48.758;9.158;2023-07-31T07:03:20;20.60;99.90
2212;DHT22;48849;48.758;9.158;2023-07-31T07:06:06;20.70;99.90
2212;DHT22;48849;48.758;9.158;2023-07-31T07:08:43;20.70;99.90
2212;DHT22;48849;48.758;9.158;2023-07-31T07:11:10;20.70;99.90
2212;DHT22;48849;48.758;9.158;2023-07-31T07:13:37;20.70;99.90
2212;DHT22;48849;48.758;9.158;2023-07-31T07:16:12;20.70;99.90
2212;DHT22;48849;48.758;9.158;2023-07-31T07:18:42;20.70;99.90
2212;DHT22;48849;48.758;9.158;2023-07-31T07:21:11;20.80;99.90
2212;DHT22;48849;48.758;9.158;2023-07-31T07:23:41;20.80;99.90
2212;DHT22;48849;48.758;9.158;2023-07-31T07:26:25;20.80;99.90
2212;DHT22;48849;48.758;9.158;2023-07-31T07:29:07;20.80;99.90
2212;DHT22;48849;48.758;9.158;2023-07-31T07:31:40;20.90;99.90
2212;DHT22;48849;48.758;9.158;2023-07-31T07:34:09;20.90;99.90
2212;DHT22;48849;48.758;9.158;2023-07-31T07:36:59;21.00;99.90
2212;DHT22;48849;48.758;9.158;2023-07-31T07:39:26;21.00;99.90
2212;DHT22;48849;48.758;9.158;2023-07-31T07:41:53;21.00;99.90
2212;DHT22;48849;48.758;9.158;2023-07-31T07:44:20;21.00;99.90
2212;DHT22;48849;48.758;9.158;2023-07-31T07:46:47;21.00;99.90
2212;DHT22;48849;48.758;9.158;2023-07-31T07:49:15;21.00;99.90
2212;DHT22;48849;48.758;9.158;2023-07-31T07:51:42;21.10;99.90
2212;DHT22;48849;48.758;9.158;2023-07-31T07:54:08;21.10;99.90
2212;DHT22;48849;48.758;9.158;2023-07-31T07:56:41;21.10;99.90
2212;DHT22;48849;48.758;9.158;2023-07-31T07:59:15;21.10;99.90
2212;DHT22;48849;48.758;9.158;2023-07-31T08:01:47;21.20;99.90
2212;DHT22;48849;48.758;9.158;2023-07-31T08:04:18;21.20;99.90
2212;DHT22;48849;48.758;9.158;2023-07-31T08:06:45;21.10;99.90
2212;DHT22;48849;48.758;9.158;2023-07-31T08:09:18;21.20;99.90
2212;DHT22;48849;48.758;9.158;2023-07-31T08:11:51;21.20;99.90
2212;DHT22;48849;48.758;9.158;2023-07-31T08:14:22;21.20;99.90
2212;DHT22;48849;48.758;9.158;2023-07-31T08:16:51;21.30;99.90
2212;DHT22;48849;48.758;9.158;2023-07-31T08:19:23;21.30;99.90
2212;DHT22;48849;48.758;9.158;2023-07-31T08:21:54;21.30;99.90
2212;DHT22;48849;48.758;9.158;2023-07-31T08:24:21;21.20;99.90
2212;DHT22;48849;48.758;9.158;2023-07-31T08:26:48;21.30;99.90
2212;DHT22;48849;48.758;9.158;2023-07-31T08:29:14;21.30;99.90
2212;DHT22;48849;48.758;9.158;2023-07-31T08:31:41;21.30;99.90
2212;DHT22;48849;48.758;9.158;2023-07-31T08:34:08;21.30;99.90
2212;DHT22;48849;48.758;9.158;2023-07-31T08:36:36;21.30;99.90
2212;DHT22;48849;48.758;9.158;2023-07-31T08:39:03;21.30;99.90
2212;DHT22;48849;48.758;9.158;2023-07-31T08:41:30;21.40;99.90
2212;DHT22;48849;48.758;9.158;2023-07-31T08:43:57;21.40;99.90
2212;DHT22;48849;48.758;9.158;2023-07-31T08:46:24;21.40;99.90
2212;DHT22;48849;48.758;9.158;2023-07-31T08:48:52;21.40;99.90
2212;DHT22;48849;48.758;9.158;2023-07-31T08:51:19;22.00;99.90
2212;DHT22;48849;48.758;9.158;2023-07-31T08:53:48;21.60;99.90
2212;DHT22;48849;48.758;9.158;2023-07-31T08:56:15;22.40;99.90
2212;DHT22;48849;48.758;9.158;2023-07-31T08:58:43;22.00;99.90
2212;DHT22;48849;48.758;9.158;2023-07-31T09:01:13;21.50;99.90
2212;DHT22;48849;48.758;9.158;2023-07-31T09:03:41;22.10;99.90
2212;DHT22;48849;48.758;9.158;2023-07-31T09:06:10;21.60;99.90
2212;DHT22;48849;48.758;9.158;2023-07-31T09:08:42;21.70;99.90
2212;DHT22;48849;48.758;9.158;2023-07-31T09:11:13;21.70;99.90
2212;DHT22;48849;48.758;9.158;2023-07-31T09:13:40;21.80;99.90
2212;DHT22;48849;48.758;9.158;2023-07-31T09:16:09;21.80;99.90
2212;DHT22;48849;48.758;9.158;2023-07-31T09:18:53;21.90;99.90
2212;DHT22;48849;48.758;9.158;2023-07-31T09:21:20;22.00;99.90
2212;DHT22;48849;48.758;9.158;2023-07-31T09:23:47;22.10;99.90
2212;DHT22;48849;48.758;9.158;2023-07-31T09:26:29;22.00;99.90
2212;DHT22;48849;48.758;9.158;2023-07-31T09:28:56;21.90;99.90
2212;DHT22;48849;48.758;9.158;2023-07-31T09:31:32;22.00;99.90
2212;DHT22;48849;48.758;9.158;2023-07-31T09:33:59;22.00;99.90
2212;DHT22;48849;48.758;9.158;2023-07-31T09:36:29;22.00;99.90
2212;DHT22;48849;48.758;9.158;2023-07-31T09:39:01;22.00;99.90
2212;DHT22;48849;48.758;9.158;2023-07-31T09:41:29;22.00;99.90
2212;DHT22;48849;48.758;9.158;2023-07-31T09:43:56;22.00;99.90
2212;DHT22;48849;48.758;9.158;2023-07-31T09:46:27;21.90;99.90
2212;DHT22;48849;48.758;9.158;2023-07-31T09:49:04;22.00;99.90
2212;DHT22;48849;48.758;9.158;2023-07-31T09:51:31;22.00;99.90
2212;DHT22;48849;48.758;9.158;2023-07-31T09:54:12;22.00;99.90
2212;DHT22;48849;48.758;9.158;2023-07-31T09:56:43;22.30;99.90
2212;DHT22;48849;48.758;9.158;2023-07-31T09:59:11;22.10;99.90
2212;DHT22;48849;48.758;9.158;2023-07-31T10:01:40;22.10;99.90
2212;DHT22;48849;48.758;9.158;2023-07-31T10:04:08;22.10;99.90
2212;DHT22;48849;48.758;9.158;2023-07-31T10:06:36;22.10;99.90
2212;DHT22;48849;48.758;9.158;2023-07-31T10:09:06;22.10;99.90
2212;DHT22;48849;48.758;9.158;2023-07-31T10:11:38;22.20;99.90
2212;DHT22;48849;48.758;9.158;2023-07-31T10:14:10;22.20;99.90
2212;DHT22;48849;48.758;9.158;2023-07-31T10:16:38;22.60;99.90
2212;DHT22;48849;48.758;9.158;2023-07-31T10:19:06;22.20;99.90
2212;DHT22;48849;48.758;9.158;2023-07-31T10:21:34;22.30;99.90
2212;DHT22;48849;48.758;9.158;2023-07-31T10:24:03;22.30;99.90
2212;DHT22;48849;48.758;9.158;2023-07-31T10:26:31;22.30;99.90
2212;DHT22;48849;48.758;9.158;2023-07-31T10:28:59;22.70;99.90
2212;DHT22;48849;48.758;9.158;2023-07-31T10:31:28;22.30;99.90
2212;DHT22;48849;48.758;9.158;2023-07-31T10:33:56;22.30;99.90
2212;DHT22;48849;48.758;9.158;2023-07-31T10:36:23;22.50;99.90
2212;DHT22;48849;48.758;9.158;2023-07-31T10:38:50;22.30;99.90
2212;DHT22;48849;48.758;9.158;2023-07-31T10:41:17;22.40;99.90
2212;DHT22;48849;48.758;9.158;2023-07-31T10:43:46;22.40;99.90
2212;DHT22;48849;48.758;9.158;2023-07-31T10:46:14;22.40;99.90
2212;DHT22;48849;48.758;9.158;2023-07-31T10:48:42;22.60;99.90
2212;DHT22;48849;48.758;9.158;2023-07-31T10:51:10;22.50;99.90
2212;DHT22;48849;48.758;9.158;2023-07-31T10:53:41;22.80;99.90
2212;DHT22;48849;48.758;9.158;2023-07-31T10:56:09;22.60;99.90
2212;DHT22;48849;48.758;9.158;2023-07-31T10:58:38;22.60;99.90
2212;DHT22;48849;48.758;9.158;2023-07-31T11:01:06;22.60;99.90
2212;DHT22;48849;48.758;9.158;2023-07-31T11:03:45;22.90;99.90
2212;DHT22;48849;48.758;9.158;2023-07-31T11:06:13;22.70;99.90
2212;DHT22;48849;48.758;9.158;2023-07-31T11:08:44;22.90;99.90
2212;DHT22;48849;48.758;9.158;2023-07-31T11:11:13;23.50;99.90
2212;DHT22;48849;48.758;9.158;2023-07-31T11:13:45;22.80;99.90
2212;DHT22;48849;48.758;9.158;2023-07-31T11:16:15;22.80;99.90
2212;DHT22;48849;48.758;9.158;2023-07-31T11:18:45;22.80;99.90
2212;DHT22;48849;48.758;9.158;2023-07-31T11:21:20;23.40;99.90
2212;DHT22;48849;48.758;9.158;2023-07-31T11:23:51;22.80;99.90
2212;DHT22;48849;48.758;9.158;2023-07-31T11:26:23;23.20;99.90
2212;DHT22;48849;48.758;9.158;2023-07-31T11:28:51;22.80;99.90
2212;DHT22;48849;48.758;9.158;2023-07-31T11:31:18;22.80;99.90
2212;DHT22;48849;48.758;9.158;2023-07-31T11:33:50;22.90;99.90
2212;DHT22;48849;48.758;9.158;2023-07-31T11:36:17;22.80;99.90
2212;DHT22;48849;48.758;9.158;2023-07-31T11:38:45;22.90;99.90
2212;DHT22;48849;48.758;9.158;2023-07-31T11:41:15;22.90;99.90
2212;DHT22;48849;48.758;9.158;2023-07-31T11:43:42;22.90;99.90
2212;DHT22;48849;48.758;9.158;2023-07-31T11:46:09;22.90;99.90
2212;DHT22;48849;48.758;9.158;2023-07-31T11:48:37;23.00;99.90
2212;DHT22;48849;48.758;9.158;2023-07-31T11:51:07;23.00;99.90
2212;DHT22;48849;48.758;9.158;2023-07-31T11:53:41;23.30;99.90
2212;DHT22;48849;48.758;9.158;2023-07-31T11:56:13;23.10;99.90
2212;DHT22;48849;48.758;9.158;2023-07-31T11:58:41;23.10;99.90
2212;DHT22;48849;48.758;9.158;2023-07-31T12:01:09;23.10;99.90
2212;DHT22;48849;48.758;9.158;2023-07-31T12:03:37;23.00;99.90
2212;DHT22;48849;48.758;9.158;2023-07-31T12:06:06;23.60;99.90
2212;DHT22;48849;48.758;9.158;2023-07-31T12:11:48;23.00;99.90
2212;DHT22;48849;48.758;9.158;2023-07-31T12:14:21;23.00;99.90
2212;DHT22;48849;48.758;9.158;2023-07-31T12:16:53;23.60;99.90
2212;DHT22;48849;48.758;9.158;2023-07-31T12:19:20;23.00;99.90
2212;DHT22;48849;48.758;9.158;2023-07-31T12:24:24;22.90;99.90
2212;DHT22;48849;48.758;9.158;2023-07-31T12:26:50;23.00;99.90
2212;DHT22;48849;48.758;9.158;2023-07-31T12:29:18;22.90;99.90
2212;DHT22;48849;48.758;9.158;2023-07-31T12:31:45;23.00;99.90
2212;DHT22;48849;48.758;9.158;2023-07-31T12:34:16;22.90;99.90
2212;DHT22;48849;48.758;9.158;2023-07-31T12:36:46;22.90;99.90
2212;DHT22;48849;48.758;9.158;2023-07-31T12:39:14;22.90;99.90
2212;DHT22;48849;48.758;9.158;2023-07-31T12:41:45;22.90;99.90
2212;DHT22;48849;48.758;9.158;2023-07-31T12:44:12;22.80;99.90
2212;DHT22;48849;48.758;9.158;2023-07-31T12:46:42;22.80;99.90
2212;DHT22;48849;48.758;9.158;2023-07-31T12:49:09;22.80;99.90
2212;DHT22;48849;48.758;9.158;2023-07-31T12:51:53;23.40;99.90
2212;DHT22;48849;48.758;9.158;2023-07-31T12:54:39;22.80;99.90
2212;DHT22;48849;48.758;9.158;2023-07-31T12:57:21;23.70;99.90
2212;DHT22;48849;48.758;9.158;2023-07-31T12:59:48;22.80;99.90
2212;DHT22;48849;48.758;9.158;2023-07-31T13:02:21;23.60;99.90
2212;DHT22;48849;48.758;9.158;2023-07-31T13:04:49;22.80;99.90
2212;DHT22;48849;48.758;9.158;2023-07-31T13:07:16;22.80;99.90
2212;DHT22;48849;48.758;9.158;2023-07-31T13:09:45;22.50;99.90
2212;DHT22;48849;48.758;9.158;2023-07-31T13:12:11;23.10;99.90
2212;DHT22;48849;48.758;9.158;2023-07-31T13:14:44;22.70;99.90
2212;DHT22;48849;48.758;9.158;2023-07-31T13:17:27;22.70;99.90
2212;DHT22;48849;48.758;9.158;2023-07-31T13:19:54;22.70;99.90
2212;DHT22;48849;48.758;9.158;2023-07-31T13:22:22;23.20;99.90
2212;DHT22;48849;48.758;9.158;2023-07-31T13:24:48;23.20;99.90
2212;DHT22;48849;48.758;9.158;2023-07-31T13:27:20;23.30;99.90
2212;DHT22;48849;48.758;9.158;2023-07-31T13:29:49;23.30;99.90
2212;DHT22;48849;48.758;9.158;2023-07-31T13:32:20;23.10;99.90
2212;DHT22;48849;48.758;9.158;2023-07-31T13:34:48;23.20;99.90
2212;DHT22;48849;48.758;9.158;2023-07-31T13:37:19;23.50;99.90
2212;DHT22;48849;48.758;9.158;2023-07-31T13:39:57;23.40;99.90
2212;DHT22;48849;48.758;9.158;2023-07-31T13:42:26;24.40;99.90
2212;DHT22;48849;48.758;9.158;2023-07-31T13:44:58;24.30;99.90
2212;DHT22;48849;48.758;9.158;2023-07-31T13:47:25;24.50;99.90
2212;DHT22;48849;48.758;9.158;2023-07-31T13:49:51;24.00;99.90
2212;DHT22;48849;48.758;9.158;2023-07-31T13:52:18;23.90;99.90
2212;DHT22;48849;48.758;9.158;2023-07-31T13:54:45;23.90;99.90
2212;DHT22;48849;48.758;9.158;2023-07-31T13:57:12;23.70;99.90
2212;DHT22;48849;48.758;9.158;2023-07-31T13:59:39;24.20;99.90
2212;DHT22;48849;48.758;9.158;2023-07-31T14:02:07;24.10;99.90
2212;DHT22;48849;48.758;9.158;2023-07-31T14:04:34;23.60;99.90
2212;DHT22;48849;48.758;9.158;2023-07-31T14:07:02;23.60;99.90
2212;DHT22;48849;48.758;9.158;2023-07-31T14:09:30;23.50;99.90
2212;DHT22;48849;48.758;9.158;2023-07-31T14:11:56;23.50;99.90
2212;DHT22;48849;48.758;9.158;2023-07-31T14:14:23;23.50;99.90
2212;DHT22;48849;48.758;9.158;2023-07-31T14:16:50;23.40;99.90
2212;DHT22;48849;48.758;9.158;2023-07-31T14:19:18;23.30;99.90
2212;DHT22;48849;48.758;9.158;2023-07-31T14:21:45;23.70;99.90
2212;DHT22;48849;48.758;9.158;2023-07-31T14:24:20;23.70;99.90
2212;DHT22;48849;48.758;9.158;2023-07-31T14:27:04;23.20;99.90
2212;DHT22;48849;48.758;9.158;2023-07-31T14:29:44;23.20;99.90
2212;DHT22;48849;48.758;9.158;2023-07-31T14:32:15;23.20;99.90
2212;DHT22;48849;48.758;9.158;2023-07-31T14:34:46;23.20;99.90
2212;DHT22;48849;48.758;9.158;2023-07-31T14:37:39;23.20;99.90
2212;DHT22;48849;48.758;9.158;2023-07-31T14:40:20;23.20;99.90
2212;DHT22;48849;48.758;9.158;2023-07-31T14:42:51;23.20;99.90
2212;DHT22;48849;48.758;9.158;2023-07-31T14:45:29;23.20;99.90
2212;DHT22;48849;48.758;9.158;2023-07-31T14:47:56;23.20;99.90
2212;DHT22;48849;48.758;9.158;2023-07-31T14:50:25;23.20;99.90
2212;DHT22;48849;48.758;9.158;2023-07-31T14:52:52;23.20;99.90
2212;DHT22;48849;48.758;9.158;2023-07-31T14:55:31;23.20;99.90
2212;DHT22;48849;48.758;9.158;2023-07-31T14:57:57;23.30;99.90
2212;DHT22;48849;48.758;9.158;2023-07-31T15:00:24;23.30;99.90
2212;DHT22;48849;48.758;9.158;2023-07-31T15:02:59;23.30;99.90
2212;DHT22;48849;48.758;9.158;2023-07-31T15:05:27;23.30;99.90
2212;DHT22;48849;48.758;9.158;2023-07-31T15:07:53;23.40;99.90
2212;DHT22;48849;48.758;9.158;2023-07-31T15:13:56;23.50;99.90
2212;DHT22;48849;48.758;9.158;2023-07-31T15:16:23;23.40;99.90
2212;DHT22;48849;48.758;9.158;2023-07-31T15:18:53;23.40;99.90
2212;DHT22;48849;48.758;9.158;2023-07-31T15:21:58;23.40;99.90
2212;DHT22;48849;48.758;9.158;2023-07-31T15:24:39;23.50;99.90
2212;DHT22;48849;48.758;9.158;2023-07-31T15:27:15;23.50;99.90
2212;DHT22;48849;48.758;9.158;2023-07-31T15:36:32;23.50;99.90
2212;DHT22;48849;48.758;9.158;2023-07-31T15:39:06;23.50;99.90
2212;DHT22;48849;48.758;9.158;2023-07-31T15:42:01;23.50;99.90
2212;DHT22;48849;48.758;9.158;2023-07-31T15:44:48;23.50;99.90
2212;DHT22;48849;48.758;9.158;2023-07-31T15:47:22;23.50;99.90
2212;DHT22;48849;48.758;9.158;2023-07-31T15:50:25;23.50;99.90
2212;DHT22;48849;48.758;9.158;2023-07-31T15:52:52;23.50;99.90
2212;DHT22;48849;48.758;9.158;2023-07-31T15:55:20;23.50;99.90
2212;DHT22;48849;48.758;9.158;2023-07-31T16:01:05;23.50;99.90
2212;DHT22;48849;48.758;9.158;2023-07-31T16:03:34;23.50;99.90
2212;DHT22;48849;48.758;9.158;2023-07-31T16:09:55;23.50;99.90
2212;DHT22;48849;48.758;9.158;2023-07-31T16:12:32;23.40;99.90
2212;DHT22;48849;48.758;9.158;2023-07-31T16:14:59;23.50;99.90
2212;DHT22;48849;48.758;9.158;2023-07-31T16:17:25;23.50;99.90
2212;DHT22;48849;48.758;9.158;2023-07-31T16:19:52;23.50;99.90
2212;DHT22;48849;48.758;9.158;2023-07-31T16:22:19;23.50;99.90